createdAt,value
2024-04-23T00:00:23.574Z,100608.38
2024-04-23T00:00:54.336Z,100617.78
2024-04-23T00:01:25.130Z,100609.03
2024-04-23T00:01:56.476Z,100604.81
2024-04-23T00:02:27.250Z,100607.66
2024-04-23T00:02:58.022Z,100604.22
2024-04-23T00:03:29.217Z,100611.00
2024-04-23T00:03:59.999Z,100610.06
2024-04-23T00:04:30.898Z,100605.81
2024-04-23T00:05:01.703Z,100605.13
2024-04-23T00:05:32.487Z,100608.41
2024-04-23T00:06:03.252Z,100601.44
2024-04-23T00:06:33.996Z,100601.53
2024-04-23T00:07:04.700Z,100602.59
2024-04-23T00:07:35.469Z,100601.53
2024-04-23T00:08:06.537Z,100604.09
2024-04-23T00:08:37.318Z,100600.06
2024-04-23T00:09:08.220Z,100605.97
2024-04-23T00:09:38.962Z,100604.28
2024-04-23T00:10:09.670Z,100603.50
2024-04-23T00:10:40.427Z,100602.53
2024-04-23T00:11:11.364Z,100599.84
2024-04-23T00:11:42.192Z,100608.41
2024-04-23T00:12:12.910Z,100599.78
2024-04-23T00:12:43.630Z,100608.00
2024-04-23T00:13:14.356Z,100602.81
2024-04-23T00:13:45.128Z,100606.19
2024-04-23T00:14:15.884Z,100603.91
2024-04-23T00:14:46.595Z,100607.47
2024-04-23T00:15:17.303Z,100611.75
2024-04-23T00:15:48.036Z,100606.34
2024-04-23T00:16:18.750Z,100614.19
2024-04-23T00:17:06.353Z,100612.59
2024-04-23T00:17:37.183Z,100607.53
2024-04-23T00:18:08.061Z,100608.63
2024-04-23T00:18:39.055Z,100602.75
2024-04-23T00:19:09.810Z,100608.69
2024-04-23T00:19:40.551Z,100600.69
2024-04-23T00:20:11.308Z,100601.50
2024-04-23T00:20:42.037Z,100606.88
2024-04-23T00:21:12.763Z,100609.59
2024-04-23T00:21:43.490Z,100606.03
2024-04-23T00:22:14.206Z,100599.00
2024-04-23T00:22:45.033Z,100602.34
2024-04-23T00:23:15.759Z,100597.31
2024-04-23T00:23:46.488Z,100596.53
2024-04-23T00:24:17.347Z,100589.75
2024-04-23T00:24:48.098Z,100594.97
2024-04-23T00:25:18.815Z,100594.88
2024-04-23T00:25:49.554Z,100589.75
2024-04-23T00:26:20.295Z,100590.50
2024-04-23T00:27:09.009Z,100585.19
2024-04-23T00:27:39.731Z,100581.88
2024-04-23T00:28:10.578Z,100587.25
2024-04-23T00:28:41.359Z,100581.34
2024-04-23T00:29:12.072Z,100577.63
2024-04-23T00:29:42.794Z,100583.97
2024-04-23T00:30:13.522Z,100586.34
2024-04-23T00:30:44.241Z,100581.28
2024-04-23T00:31:14.952Z,100586.41
2024-04-23T00:31:48.557Z,100579.38
2024-04-23T00:32:19.444Z,100580.13
2024-04-23T00:32:50.272Z,100577.47
2024-04-23T00:33:21.030Z,100582.66
2024-04-23T00:33:51.772Z,100575.00
2024-04-23T00:34:22.501Z,100580.19
2024-04-23T00:34:53.232Z,100579.28
2024-04-23T00:35:23.998Z,100577.94
2024-04-23T00:35:54.709Z,100575.31
2024-04-23T00:36:25.416Z,100569.50
2024-04-23T00:36:58.943Z,100572.81
2024-04-23T00:37:29.804Z,100571.91
2024-04-23T00:38:01.131Z,100570.22
2024-04-23T00:38:31.882Z,100573.56
2024-04-23T00:39:02.629Z,100577.03
2024-04-23T00:39:33.341Z,100564.13
2024-04-23T00:40:04.115Z,100569.53
2024-04-23T00:40:35.332Z,100573.72
2024-04-23T00:41:06.165Z,100561.81
2024-04-23T00:41:39.761Z,100572.03
2024-04-23T00:42:10.630Z,100567.75
2024-04-23T00:42:41.370Z,100565.25
2024-04-23T00:43:12.133Z,100560.97
2024-04-23T00:43:42.959Z,100566.09
2024-04-23T00:44:13.787Z,100561.72
2024-04-23T00:44:44.535Z,100561.88
2024-04-23T00:45:19.257Z,100558.38
2024-04-23T00:45:55.881Z,100564.53
2024-04-23T00:46:29.438Z,100557.75
2024-04-23T00:47:00.362Z,100557.78
2024-04-23T00:47:31.212Z,100562.00
2024-04-23T00:48:03.668Z,100563.63
2024-04-23T00:48:34.562Z,100561.88
2024-04-23T00:49:11.206Z,100560.25
2024-04-23T00:49:42.668Z,100556.09
2024-04-23T00:50:13.456Z,100560.19
2024-04-23T00:50:45.007Z,100556.81
2024-04-23T00:51:15.732Z,100552.78
2024-04-23T00:51:49.502Z,100556.09
2024-04-23T00:52:20.511Z,100555.25
2024-04-23T00:52:51.309Z,100557.91
2024-04-23T00:53:22.688Z,100556.03
2024-04-23T00:53:53.819Z,100551.63
2024-04-23T00:54:26.590Z,100555.16
2024-04-23T00:54:58.121Z,100559.59
2024-04-23T00:55:29.517Z,100554.53
2024-04-23T00:56:00.349Z,100555.38
2024-04-23T00:56:31.331Z,100554.34
2024-04-23T00:57:02.309Z,100562.97
2024-04-23T00:57:33.368Z,100552.78
2024-04-23T00:58:04.522Z,100554.41
2024-04-23T00:58:36.268Z,100552.72
2024-04-23T00:59:09.572Z,100554.41
2024-04-23T00:59:40.369Z,100553.69
2024-04-23T01:00:11.624Z,100560.50
2024-04-23T01:00:42.355Z,100557.22
2024-04-23T01:01:13.272Z,100556.31
2024-04-23T01:01:45.195Z,100559.59
2024-04-23T01:02:16.269Z,100559.47
2024-04-23T01:02:47.488Z,100556.22
2024-04-23T01:03:18.299Z,100559.81
2024-04-23T01:03:49.275Z,100553.78
2024-04-23T01:04:20.455Z,100552.84
2024-04-23T01:04:51.373Z,100558.03
2024-04-23T01:05:22.120Z,100554.53
2024-04-23T01:05:52.846Z,100553.91
2024-04-23T01:06:23.573Z,100554.81
2024-04-23T01:06:54.320Z,100558.31
2024-04-23T01:07:25.042Z,100548.66
2024-04-23T01:07:55.909Z,100550.56
2024-04-23T01:08:26.770Z,100554.19
2024-04-23T01:08:57.770Z,100549.00
2024-04-23T01:09:28.525Z,100557.50
2024-04-23T01:09:59.504Z,100554.06
2024-04-23T01:10:30.486Z,100551.63
2024-04-23T01:11:02.687Z,100553.53
2024-04-23T01:11:34.599Z,100557.94
2024-04-23T01:12:05.498Z,100550.84
2024-04-23T01:12:36.213Z,100547.13
2024-04-23T01:13:06.960Z,100554.97
2024-04-23T01:13:37.718Z,100547.19
2024-04-23T01:14:08.461Z,100552.56
2024-04-23T01:14:42.441Z,100550.31
2024-04-23T01:15:14.706Z,100554.56
2024-04-23T01:15:48.055Z,100540.63
2024-04-23T01:16:27.449Z,100541.47
2024-04-23T01:16:59.074Z,100552.91
2024-04-23T01:17:30.783Z,100550.25
2024-04-23T01:18:06.227Z,100551.13
2024-04-23T01:18:38.520Z,100552.75
2024-04-23T01:19:59.338Z,100551.06
2024-04-23T01:20:32.225Z,100549.41
2024-04-23T01:21:09.069Z,100547.94
2024-04-23T01:22:00.827Z,100550.53
2024-04-23T01:22:58.748Z,100551.22
2024-04-23T01:23:43.734Z,100549.13
2024-04-23T01:24:23.010Z,100549.88
2024-04-23T01:25:06.096Z,100551.34
2024-04-23T01:25:41.337Z,100545.47
2024-04-23T01:26:13.621Z,100545.41
2024-04-23T01:26:44.882Z,100545.63
2024-04-23T01:27:16.815Z,100535.53
2024-04-23T01:27:48.439Z,100540.50
2024-04-23T01:28:19.507Z,100547.34
2024-04-23T01:28:51.078Z,100539.59
2024-04-23T01:29:22.116Z,100545.88
2024-04-23T01:29:56.726Z,100547.44
2024-04-23T01:30:28.064Z,100538.25
2024-04-23T01:30:59.183Z,100537.41
2024-04-23T01:31:30.578Z,100543.31
2024-04-23T01:32:04.754Z,100541.63
2024-04-23T01:32:38.436Z,100544.28
2024-04-23T01:33:11.352Z,100535.50
2024-04-23T01:33:45.633Z,100543.44
2024-04-23T01:34:16.938Z,100535.50
2024-04-23T01:34:48.070Z,100538.03
2024-04-23T01:35:19.416Z,100534.81
2024-04-23T01:35:51.096Z,100542.59
2024-04-23T01:36:23.237Z,100531.38
2024-04-23T01:36:53.982Z,100535.81
2024-04-23T01:37:28.598Z,100534.03
2024-04-23T01:38:01.180Z,100535.72
2024-04-23T01:38:33.974Z,100537.34
2024-04-23T01:39:05.494Z,100532.22
2024-04-23T01:39:38.136Z,100534.94
2024-04-23T01:40:10.172Z,100540.84
2024-04-23T01:40:41.223Z,100541.97
2024-04-23T01:41:12.332Z,100536.78
2024-04-23T01:41:43.399Z,100538.41
2024-04-23T01:42:16.121Z,100535.78
2024-04-23T01:42:49.082Z,100537.56
2024-04-23T01:43:20.248Z,100541.91
2024-04-23T01:43:51.817Z,100537.53
2024-04-23T01:44:22.851Z,100538.75
2024-04-23T01:44:53.691Z,100533.47
2024-04-23T01:45:25.056Z,100537.53
2024-04-23T01:45:57.386Z,100533.41
2024-04-23T01:46:28.602Z,100532.44
2024-04-23T01:46:59.385Z,100539.66
2024-04-23T01:47:30.552Z,100537.84
2024-04-23T01:48:03.817Z,100540.34
2024-04-23T01:48:35.052Z,100536.06
2024-04-23T01:49:05.831Z,100535.25
2024-04-23T01:49:37.338Z,100532.56
2024-04-23T01:50:08.497Z,100534.34
2024-04-23T01:50:39.482Z,100537.84
2024-04-23T01:51:10.438Z,100531.88
2024-04-23T01:51:41.172Z,100540.50
2024-04-23T01:52:12.016Z,100533.75
2024-04-23T01:52:43.821Z,100532.00
2024-04-23T01:53:14.558Z,100529.34
2024-04-23T01:53:45.270Z,100531.09
2024-04-23T01:54:16.009Z,100534.34
2024-04-23T01:54:47.228Z,100521.28
2024-04-23T01:55:18.791Z,100528.38
2024-04-23T01:55:49.564Z,100524.31
2024-04-23T01:56:20.385Z,100530.53
2024-04-23T01:56:51.520Z,100537.34
2024-04-23T01:57:22.268Z,100528.56
2024-04-23T01:57:53.107Z,100523.47
2024-04-23T01:58:23.823Z,100520.78
2024-04-23T01:58:54.626Z,100525.22
2024-04-23T01:59:25.364Z,100520.81
2024-04-23T02:00:04.298Z,100523.31
2024-04-23T02:00:37.638Z,100519.84
2024-04-23T02:01:10.634Z,100521.50
2024-04-23T02:01:45.357Z,100519.72
2024-04-23T02:02:18.511Z,100519.94
2024-04-23T02:02:52.388Z,100528.66
2024-04-23T02:03:24.006Z,100527.81
2024-04-23T02:03:54.859Z,100526.97
2024-04-23T02:04:26.368Z,100524.25
2024-04-23T02:04:58.254Z,100522.47
2024-04-23T02:05:30.420Z,100521.50
2024-04-23T02:06:02.103Z,100517.13
2024-04-23T02:06:33.096Z,100521.66
2024-04-23T02:07:03.970Z,100519.75
2024-04-23T02:07:35.857Z,100522.41
2024-04-23T02:08:07.108Z,100518.09
2024-04-23T02:08:37.929Z,100522.53
2024-04-23T02:09:09.594Z,100523.97
2024-04-23T02:09:41.784Z,100523.88
2024-04-23T02:10:12.747Z,100518.03
2024-04-23T02:10:44.531Z,100514.66
2024-04-23T02:11:16.297Z,100518.94
2024-04-23T02:11:47.252Z,100519.03
2024-04-23T02:12:25.191Z,100512.78
2024-04-23T02:12:56.980Z,100512.13
2024-04-23T02:13:27.764Z,100518.03
2024-04-23T02:13:58.569Z,100515.63
2024-04-23T02:14:29.647Z,100521.72
2024-04-23T02:15:03.445Z,100512.19
2024-04-23T02:15:34.161Z,100517.31
2024-04-23T02:16:05.097Z,100513.03
2024-04-23T02:16:36.170Z,100500.09
2024-04-23T02:17:07.191Z,100507.72
2024-04-23T02:17:38.206Z,100517.31
2024-04-23T02:18:09.090Z,100504.41
2024-04-23T02:18:39.937Z,100511.31
2024-04-23T02:19:10.671Z,100511.28
2024-04-23T02:19:41.481Z,100508.72
2024-04-23T02:20:12.252Z,100507.09
2024-04-23T02:20:42.987Z,100507.22
2024-04-23T02:21:13.707Z,100507.22
2024-04-23T02:21:44.418Z,100507.03
2024-04-23T02:22:15.144Z,100500.00
2024-04-23T02:22:45.903Z,100504.63
2024-04-23T02:23:16.660Z,100498.53
2024-04-23T02:23:47.411Z,100499.31
2024-04-23T02:24:18.181Z,100501.84
2024-04-23T02:24:48.927Z,100505.28
2024-04-23T02:25:23.873Z,100501.75
2024-04-23T02:25:54.909Z,100501.13
2024-04-23T02:26:25.635Z,100501.91
2024-04-23T02:26:56.356Z,100503.50
2024-04-23T02:27:27.110Z,100499.25
2024-04-23T02:27:57.847Z,100495.03
2024-04-23T02:28:28.588Z,100496.84
2024-04-23T02:28:59.543Z,100496.72
2024-04-23T02:29:30.284Z,100494.91
2024-04-23T02:30:01.168Z,100493.00
2024-04-23T02:30:34.034Z,100491.44
2024-04-23T02:31:04.751Z,100492.28
2024-04-23T02:31:35.506Z,100492.09
2024-04-23T02:32:06.266Z,100497.34
2024-04-23T02:32:37.069Z,100487.94
2024-04-23T02:33:11.769Z,100494.13
2024-04-23T02:33:42.770Z,100485.31
2024-04-23T02:34:13.621Z,100496.56
2024-04-23T02:34:44.369Z,100489.63
2024-04-23T02:35:15.111Z,100488.72
2024-04-23T02:35:48.046Z,100489.78
2024-04-23T02:36:18.761Z,100481.19
2024-04-23T02:36:49.480Z,100482.72
2024-04-23T02:37:20.190Z,100482.78
2024-04-23T02:37:50.951Z,100487.16
2024-04-23T02:38:21.682Z,100481.97
2024-04-23T02:38:52.384Z,100481.97
2024-04-23T02:39:23.102Z,100474.94
2024-04-23T02:39:53.829Z,100476.63
2024-04-23T02:40:24.561Z,100483.69
2024-04-23T02:40:57.788Z,100476.69
2024-04-23T02:41:28.527Z,100478.44
2024-04-23T02:41:59.258Z,100475.78
2024-04-23T02:42:30.455Z,100472.41
2024-04-23T02:43:01.157Z,100474.44
2024-04-23T02:43:31.885Z,100472.72
2024-04-23T02:44:06.741Z,100471.72
2024-04-23T02:44:37.490Z,100469.34
2024-04-23T02:45:08.533Z,100472.56
2024-04-23T02:45:39.257Z,100465.63
2024-04-23T02:46:09.960Z,100476.91
2024-04-23T02:46:41.151Z,100469.13
2024-04-23T02:47:11.922Z,100468.22
2024-04-23T02:47:42.856Z,100472.44
2024-04-23T02:48:13.687Z,100470.72
2024-04-23T02:48:44.454Z,100469.75
2024-04-23T02:49:15.184Z,100464.50
2024-04-23T02:49:45.941Z,100468.78
2024-04-23T02:50:16.681Z,100470.59
2024-04-23T02:50:47.404Z,100476.78
2024-04-23T02:51:18.117Z,100480.13
2024-04-23T02:51:49.702Z,100474.19
2024-04-23T02:52:20.418Z,100467.94
2024-04-23T02:52:51.164Z,100468.72
2024-04-23T02:53:21.911Z,100473.06
2024-04-23T02:53:52.678Z,100474.75
2024-04-23T02:54:23.428Z,100471.22
2024-04-23T02:54:54.171Z,100472.06
2024-04-23T02:55:24.896Z,100469.47
2024-04-23T02:55:55.666Z,100472.06
2024-04-23T02:56:26.521Z,100470.31
2024-04-23T02:56:57.242Z,100471.31
2024-04-23T02:57:27.999Z,100473.03
2024-04-23T02:57:58.709Z,100472.97
2024-04-23T02:58:29.450Z,100480.84
2024-04-23T02:59:00.241Z,100477.25
2024-04-23T02:59:31.002Z,100476.50
2024-04-23T03:00:01.730Z,100473.19
2024-04-23T03:00:32.482Z,100480.84
2024-04-23T03:01:03.268Z,100474.72
2024-04-23T03:01:34.016Z,100475.56
2024-04-23T03:02:07.002Z,100475.56
2024-04-23T03:02:37.856Z,100470.38
2024-04-23T03:03:08.730Z,100471.16
2024-04-23T03:03:40.538Z,100472.06
2024-04-23T03:04:11.300Z,100464.38
2024-04-23T03:04:42.515Z,100471.38
2024-04-23T03:05:13.269Z,100481.47
2024-04-23T03:05:43.975Z,100475.56
2024-04-23T03:06:14.703Z,100469.56
2024-04-23T03:06:45.415Z,100477.41
2024-04-23T03:07:16.138Z,100472.16
2024-04-23T03:07:46.908Z,100467.88
2024-04-23T03:08:17.654Z,100469.63
2024-04-23T03:08:49.633Z,100472.28
2024-04-23T03:09:20.360Z,100461.91
2024-04-23T03:09:51.101Z,100467.94
2024-04-23T03:10:21.828Z,100474.72
2024-04-23T03:10:52.574Z,100472.16
2024-04-23T03:11:23.688Z,100472.91
2024-04-23T03:11:55.241Z,100471.28
2024-04-23T03:12:25.952Z,100468.69
2024-04-23T03:12:56.667Z,100471.38
2024-04-23T03:13:27.492Z,100464.44
2024-04-23T03:13:58.357Z,100468.56
2024-04-23T03:14:29.198Z,100465.06
2024-04-23T03:15:02.947Z,100457.34
2024-04-23T03:15:33.663Z,100454.09
2024-04-23T03:16:07.703Z,100458.41
2024-04-23T03:16:40.137Z,100460.00
2024-04-23T03:17:11.024Z,100461.00
2024-04-23T03:17:42.134Z,100461.84
2024-04-23T03:18:13.136Z,100459.38
2024-04-23T03:18:43.971Z,100464.66
2024-04-23T03:19:14.721Z,100463.94
2024-04-23T03:19:45.548Z,100461.41
2024-04-23T03:20:17.319Z,100459.38
2024-04-23T03:20:48.044Z,100455.22
2024-04-23T03:21:18.756Z,100467.31
2024-04-23T03:21:58.319Z,100458.69
2024-04-23T03:22:29.075Z,100459.81
2024-04-23T03:22:59.827Z,100467.53
2024-04-23T03:23:30.542Z,100463.09
2024-04-23T03:24:01.256Z,100459.75
2024-04-23T03:24:34.248Z,100459.00
2024-04-23T03:25:05.411Z,100458.16
2024-04-23T03:25:38.718Z,100463.44
2024-04-23T03:26:10.204Z,100457.31
2024-04-23T03:26:40.945Z,100450.22
2024-04-23T03:27:11.690Z,100451.84
2024-04-23T03:27:42.412Z,100456.25
2024-04-23T03:28:13.130Z,100444.28
2024-04-23T03:28:43.873Z,100449.59
2024-04-23T03:29:14.634Z,100454.03
2024-04-23T03:29:45.375Z,100449.59
2024-04-23T03:30:16.094Z,100455.63
2024-04-23T03:30:46.838Z,100444.34
2024-04-23T03:31:17.544Z,100444.22
2024-04-23T03:32:30.375Z,100443.03
2024-04-23T03:33:01.282Z,100447.38
2024-04-23T03:33:32.115Z,100439.50
2024-04-23T03:34:02.843Z,100442.19
2024-04-23T03:34:33.737Z,100438.59
2024-04-23T03:35:04.891Z,100436.72
2024-04-23T03:35:35.722Z,100440.28
2024-04-23T03:36:07.072Z,100441.97
2024-04-23T03:36:37.777Z,100438.44
2024-04-23T03:37:08.563Z,100437.69
2024-04-23T03:37:39.309Z,100441.97
2024-04-23T03:38:10.026Z,100433.59
2024-04-23T03:38:40.831Z,100433.56
2024-04-23T03:39:11.541Z,100443.72
2024-04-23T03:39:42.243Z,100431.75
2024-04-23T03:40:12.994Z,100437.81
2024-04-23T03:40:43.769Z,100443.78
2024-04-23T03:41:14.506Z,100435.03
2024-04-23T03:41:57.847Z,100444.56
2024-04-23T03:42:28.542Z,100443.72
2024-04-23T03:42:59.261Z,100443.72
2024-04-23T03:43:30.121Z,100437.56
2024-04-23T03:44:01.373Z,100441.13
2024-04-23T03:44:33.656Z,100439.28
2024-04-23T03:45:06.460Z,100453.19
2024-04-23T03:45:37.171Z,100446.25
2024-04-23T03:46:07.891Z,100440.28
2024-04-23T03:46:38.647Z,100438.47
2024-04-23T03:47:09.539Z,100441.88
2024-04-23T03:47:40.504Z,100447.06
2024-04-23T03:48:11.530Z,100436.69
2024-04-23T03:48:42.312Z,100437.53
2024-04-23T03:49:13.027Z,100432.53
2024-04-23T03:49:44.674Z,100440.28
2024-04-23T03:50:15.429Z,100438.53
2024-04-23T03:50:46.145Z,100433.56
2024-04-23T03:51:16.854Z,100440.28
2024-04-23T03:51:47.695Z,100436.72
2024-04-23T03:52:18.400Z,100436.91
2024-04-23T03:52:49.147Z,100429.94
2024-04-23T03:53:19.887Z,100441.97
2024-04-23T03:53:50.619Z,100441.25
2024-04-23T03:54:21.347Z,100437.97
2024-04-23T03:54:52.662Z,100438.09
2024-04-23T03:55:23.382Z,100445.00
2024-04-23T03:55:54.132Z,100442.19
2024-04-23T03:56:24.879Z,100438.59
2024-04-23T03:56:55.595Z,100434.19
2024-04-23T03:57:26.327Z,100435.94
2024-04-23T03:57:57.954Z,100442.03
2024-04-23T03:58:28.706Z,100445.47
2024-04-23T03:58:59.471Z,100435.25
2024-04-23T03:59:30.284Z,100437.91
2024-04-23T04:00:01.114Z,100438.09
2024-04-23T04:00:31.872Z,100429.22
2024-04-23T04:01:02.630Z,100435.31
2024-04-23T04:01:33.462Z,100431.00
2024-04-23T04:02:22.924Z,100433.63
2024-04-23T04:03:12.259Z,100431.91
2024-04-23T04:04:01.413Z,100428.78
2024-04-23T04:04:50.695Z,100428.78
2024-04-23T04:05:39.997Z,100434.66
2024-04-23T04:06:11.878Z,100432.75
2024-04-23T04:06:42.590Z,100427.75
2024-04-23T04:07:13.301Z,100429.50
2024-04-23T04:07:44.049Z,100424.28
2024-04-23T04:08:14.767Z,100429.47
2024-04-23T04:08:45.468Z,100424.06
2024-04-23T04:09:16.185Z,100431.84
2024-04-23T04:09:46.906Z,100420.69
2024-04-23T04:10:17.618Z,100434.47
2024-04-23T04:10:48.426Z,100420.59
2024-04-23T04:11:22.507Z,100426.63
2024-04-23T04:11:56.847Z,100422.22
2024-04-23T04:12:27.599Z,100429.09
2024-04-23T04:13:12.294Z,100426.34
2024-04-23T04:13:48.591Z,100422.16
2024-04-23T04:14:19.357Z,100425.50
2024-04-23T04:14:50.105Z,100418.38
2024-04-23T04:15:20.817Z,100427.91
2024-04-23T04:15:51.914Z,100429.53
2024-04-23T04:16:23.527Z,100428.59
2024-04-23T04:16:54.294Z,100422.72
2024-04-23T04:17:25.110Z,100424.53
2024-04-23T04:17:56.003Z,100427.06
2024-04-23T04:18:26.801Z,100420.88
2024-04-23T04:18:57.533Z,100424.19
2024-04-23T04:19:29.387Z,100427.63
2024-04-23T04:20:00.321Z,100418.31
2024-04-23T04:20:31.157Z,100414.16
2024-04-23T04:21:02.372Z,100426.00
2024-04-23T04:21:33.081Z,100417.44
2024-04-23T04:22:03.788Z,100416.56
2024-04-23T04:22:34.537Z,100418.28
2024-04-23T04:23:05.562Z,100412.13
2024-04-23T04:23:36.420Z,100422.38
2024-04-23T04:24:07.309Z,100407.91
2024-04-23T04:24:38.030Z,100420.91
2024-04-23T04:25:08.833Z,100409.59
2024-04-23T04:25:39.564Z,100417.44
2024-04-23T04:26:12.160Z,100408.56
2024-04-23T04:26:42.911Z,100406.81
2024-04-23T04:27:13.824Z,100403.34
2024-04-23T04:27:44.531Z,100404.19
2024-04-23T04:28:17.923Z,100407.66
2024-04-23T04:28:48.702Z,100415.28
2024-04-23T04:29:19.451Z,100414.50
2024-04-23T04:29:50.187Z,100404.28
2024-04-23T04:30:20.970Z,100407.78
2024-04-23T04:30:51.697Z,100404.22
2024-04-23T04:31:22.428Z,100404.22
2024-04-23T04:31:53.190Z,100406.81
2024-04-23T04:32:23.913Z,100407.00
2024-04-23T04:32:54.708Z,100401.84
2024-04-23T04:33:25.644Z,100414.66
2024-04-23T04:33:56.422Z,100414.66
2024-04-23T04:34:27.280Z,100407.94
2024-04-23T04:34:58.127Z,100401.03
2024-04-23T04:35:28.920Z,100413.81
2024-04-23T04:35:59.647Z,100400.75
2024-04-23T04:36:30.371Z,100401.47
2024-04-23T04:37:01.119Z,100408.41
2024-04-23T04:37:35.537Z,100406.66
2024-04-23T04:38:06.314Z,100403.22
2024-04-23T04:38:37.083Z,100410.22
2024-04-23T04:39:07.784Z,100403.16
2024-04-23T04:39:38.669Z,100410.09
2024-04-23T04:40:09.759Z,100406.66
2024-04-23T04:40:40.688Z,100411.91
2024-04-23T04:41:11.520Z,100405.81
2024-04-23T04:41:42.271Z,100401.63
2024-04-23T04:42:13.003Z,100399.06
2024-04-23T04:42:43.735Z,100399.06
2024-04-23T04:43:14.455Z,100400.75
2024-04-23T04:43:45.205Z,100399.88
2024-04-23T04:44:15.944Z,100395.59
2024-04-23T04:44:46.654Z,100400.78
2024-04-23T04:45:17.372Z,100399.19
2024-04-23T04:45:48.077Z,100397.19
2024-04-23T04:46:20.051Z,100392.03
2024-04-23T04:46:50.843Z,100398.19
2024-04-23T04:47:21.657Z,100391.34
2024-04-23T04:47:52.582Z,100397.38
2024-04-23T04:48:23.549Z,100392.09
2024-04-23T04:48:54.325Z,100392.09
2024-04-23T04:49:25.050Z,100398.28
2024-04-23T04:49:55.898Z,100394.69
2024-04-23T04:50:26.626Z,100388.47
2024-04-23T04:50:57.425Z,100398.94
2024-04-23T04:51:28.129Z,100394.41
2024-04-23T04:51:58.864Z,100395.28
2024-04-23T04:52:29.640Z,100391.94
2024-04-23T04:53:00.585Z,100384.06
2024-04-23T04:53:31.386Z,100390.94
2024-04-23T04:54:02.166Z,100387.38
2024-04-23T04:54:32.916Z,100382.13
2024-04-23T04:55:03.839Z,100389.19
2024-04-23T04:55:34.921Z,100386.34
2024-04-23T04:56:06.093Z,100381.22
2024-04-23T04:56:36.826Z,100377.69
2024-04-23T04:57:07.540Z,100381.13
2024-04-23T04:57:38.273Z,100385.34
2024-04-23T04:58:09.001Z,100381.00
2024-04-23T04:58:39.780Z,100388.63
2024-04-23T04:59:10.495Z,100383.53
2024-04-23T04:59:41.228Z,100381.78
2024-04-23T05:00:12.338Z,100380.88
2024-04-23T05:00:44.633Z,100381.91
2024-04-23T05:01:16.098Z,100382.75
2024-04-23T05:01:46.932Z,100374.13
2024-04-23T05:02:17.815Z,100375.13
2024-04-23T05:02:48.578Z,100378.47
2024-04-23T05:03:19.340Z,100368.94
2024-04-23T05:03:50.080Z,100371.69
2024-04-23T05:04:20.896Z,100366.50
2024-04-23T05:04:52.695Z,100364.78
2024-04-23T05:05:23.429Z,100371.78
2024-04-23T05:05:54.184Z,100363.09
2024-04-23T05:06:26.183Z,100371.00
2024-04-23T05:06:57.023Z,100367.44
2024-04-23T05:07:27.782Z,100371.66
2024-04-23T05:07:58.599Z,100374.19
2024-04-23T05:08:29.405Z,100369.84
2024-04-23T05:09:00.135Z,100376.78
2024-04-23T05:09:30.959Z,100379.53
2024-04-23T05:10:01.678Z,100377.72
2024-04-23T05:10:32.868Z,100373.75
2024-04-23T05:11:03.837Z,100371.84
2024-04-23T05:11:42.588Z,100380.31
2024-04-23T05:12:20.696Z,100366.66
2024-04-23T05:12:54.234Z,100377.94
2024-04-23T05:13:27.231Z,100377.94
2024-04-23T05:14:00.664Z,100367.66
2024-04-23T05:14:31.487Z,100355.84
2024-04-23T05:15:02.991Z,100373.59
2024-04-23T05:15:33.737Z,100368.94
2024-04-23T05:16:04.818Z,100373.34
2024-04-23T05:16:35.590Z,100369.19
2024-04-23T05:17:06.375Z,100371.53
2024-04-23T05:17:37.208Z,100369.84
2024-04-23T05:18:08.064Z,100373.44
2024-04-23T05:18:38.970Z,100372.50
2024-04-23T05:19:10.268Z,100374.00
2024-04-23T05:19:42.410Z,100381.66
2024-04-23T05:20:13.139Z,100367.72
2024-04-23T05:20:43.923Z,100365.16
2024-04-23T05:21:14.661Z,100365.88
2024-04-23T05:21:45.428Z,100368.41
2024-04-23T05:22:16.177Z,100373.53
2024-04-23T05:22:46.958Z,100377.72
2024-04-23T05:23:17.736Z,100379.41
2024-04-23T05:23:48.442Z,100369.41
2024-04-23T05:24:19.163Z,100367.44
2024-04-23T05:24:50.071Z,100366.53
2024-04-23T05:25:20.820Z,100374.00
2024-04-23T05:25:51.547Z,100370.56
2024-04-23T05:26:23.304Z,100366.34
2024-04-23T05:26:54.017Z,100367.06
2024-04-23T05:27:24.760Z,100363.56
2024-04-23T05:27:55.504Z,100373.94
2024-04-23T05:28:26.216Z,100360.09
2024-04-23T05:28:57.971Z,100348.88
2024-04-23T05:29:28.693Z,100371.16
2024-04-23T05:30:03.139Z,100355.78
2024-04-23T05:30:52.686Z,100356.09
2024-04-23T05:31:42.060Z,100350.56
2024-04-23T05:32:31.196Z,100361.16
2024-04-23T05:33:02.085Z,100351.41
2024-04-23T05:33:33.065Z,100374.78
2024-04-23T05:34:03.825Z,100366.22
2024-04-23T05:34:36.076Z,100358.44
2024-04-23T05:35:07.213Z,100363.56
2024-04-23T05:35:38.024Z,100363.56
2024-04-23T05:36:09.123Z,100364.28
2024-04-23T05:36:39.848Z,100359.56
2024-04-23T05:37:10.572Z,100370.53
2024-04-23T05:37:44.063Z,100362.81
2024-04-23T05:38:17.535Z,100363.84
2024-04-23T05:38:49.548Z,100368.78
2024-04-23T05:39:20.286Z,100370.53
2024-04-23T05:39:50.997Z,100363.59
2024-04-23T05:40:21.725Z,100359.91
2024-04-23T05:40:52.482Z,100365.22
2024-04-23T05:41:23.253Z,100365.41
2024-04-23T05:41:53.990Z,100356.88
2024-04-23T05:42:24.758Z,100356.47
2024-04-23T05:42:55.473Z,100355.56
2024-04-23T05:43:26.192Z,100358.00
2024-04-23T05:43:59.024Z,100357.38
2024-04-23T05:44:29.773Z,100350.38
2024-04-23T05:45:00.647Z,100355.38
2024-04-23T05:45:31.398Z,100364.31
2024-04-23T05:46:02.133Z,100361.06
2024-04-23T05:46:32.900Z,100360.22
2024-04-23T05:47:03.692Z,100357.75
2024-04-23T05:48:11.631Z,100359.06
2024-04-23T05:49:19.883Z,100358.69
2024-04-23T05:50:29.113Z,100354.16
2024-04-23T05:51:37.085Z,100352.41
2024-04-23T05:52:44.734Z,100356.75
2024-04-23T05:53:52.555Z,100351.66
2024-04-23T05:55:00.516Z,100349.88
2024-04-23T05:55:38.847Z,100350.91
2024-04-23T05:56:09.723Z,100346.38
2024-04-23T05:56:40.595Z,100350.44
2024-04-23T05:57:11.377Z,100341.88
2024-04-23T05:57:42.117Z,100352.00
2024-04-23T05:58:12.852Z,100349.56
2024-04-23T05:58:43.577Z,100347.13
2024-04-23T05:59:14.311Z,100334.94
2024-04-23T05:59:51.036Z,100336.91
2024-04-23T06:00:22.366Z,100334.88
2024-04-23T06:00:54.742Z,100341.81
2024-04-23T06:01:25.501Z,100340.06
2024-04-23T06:01:56.278Z,100345.00
2024-04-23T06:02:27.002Z,100341.56
2024-04-23T06:02:58.044Z,100340.13
2024-04-23T06:03:28.836Z,100335.69
2024-04-23T06:03:59.617Z,100336.28
2024-04-23T06:04:30.372Z,100343.97
2024-04-23T06:05:01.343Z,100338.63
2024-04-23T06:05:32.222Z,100338.84
2024-04-23T06:06:03.007Z,100344.81
2024-04-23T06:06:33.721Z,100345.78
2024-04-23T06:07:04.508Z,100355.19
2024-04-23T06:07:35.233Z,100345.00